Time;durP1;ratioP1;P1;durP2;ratioP2;P2;SDS_P1;SDS_P2;PMS_P1;PMS_P2;Temp;Humidity;BMP_temperature;BMP_pressure;BME280_temperature;BME280_humidity;BME280_pressure;Samples;Min_cycle;Max_cycle;Signal;HPM_P1;HPM_P2
2023/08/15 00:01:07;;;;;;;0.60;0.60;;;;;;;22.08;100.00;100312.47;4994319;28;20680;-80
2023/08/15 00:03:33;;;;;;;0.30;0.30;;;;;;;22.13;100.00;100320.44;4994668;28;20266;-80
2023/08/15 00:05:58;;;;;;;3.97;1.20;;;;;;;22.06;100.00;100305.69;4992369;28;20229;-80
2023/08/15 00:08:23;;;;;;;1.73;1.70;;;;;;;22.06;100.00;100309.28;4994724;28;20190;-80
2023/08/15 00:10:49;;;;;;;1.03;0.93;;;;;;;22.06;100.00;100309.28;4994615;28;20198;-79
2023/08/15 00:13:14;;;;;;;0.77;0.77;;;;;;;22.02;100.00;100310.44;4993126;28;20222;-79
2023/08/15 00:15:40;;;;;;;0.50;0.50;;;;;;;22.12;100.00;100309.69;4993744;28;20218;-80
2023/08/15 00:18:06;;;;;;;0.20;0.20;;;;;;;22.15;99.26;100314.47;4992671;28;20218;-80
2023/08/15 00:20:32;;;;;;;0.00;0.00;;;;;;;22.10;99.38;100312.06;4993966;28;20189;-80
2023/08/15 00:22:57;;;;;;;1.10;1.10;;;;;;;22.13;99.01;100309.31;4994160;28;20252;-80
2023/08/15 00:25:22;;;;;;;1.60;1.50;;;;;;;22.12;98.39;100307.69;4994139;28;20205;-80
2023/08/15 00:27:48;;;;;;;7.70;1.23;;;;;;;22.10;98.23;100303.72;4994589;28;20271;-80
2023/08/15 00:30:13;;;;;;;0.40;0.40;;;;;;;22.14;98.05;100313.69;4994748;28;20301;-80
2023/08/15 00:32:38;;;;;;;0.97;0.90;;;;;;;22.06;97.86;100302.91;4993306;28;20565;-79
2023/08/15 00:35:05;;;;;;;0.53;0.53;;;;;;;22.17;97.64;100306.53;4993730;28;20290;-81
2023/08/15 00:37:33;;;;;;;1.10;1.10;;;;;;;22.12;97.64;100299.34;4994435;28;20591;-79
2023/08/15 00:39:59;;;;;;;1.47;1.20;;;;;;;22.06;97.62;100297.34;4994374;28;20190;-79
2023/08/15 00:42:25;;;;;;;1.63;1.53;;;;;;;22.04;97.98;100297.72;4992912;28;20190;-79
2023/08/15 00:44:50;;;;;;;1.13;0.97;;;;;;;22.09;97.88;100297.34;4992355;28;20212;-80
2023/08/15 00:47:16;;;;;;;4.23;1.47;;;;;;;22.01;98.14;100292.16;4994293;28;20198;-80
2023/08/15 00:49:42;;;;;;;1.60;1.50;;;;;;;21.95;98.17;100298.06;4993867;28;20236;-79
2023/08/15 00:52:09;;;;;;;1.23;1.13;;;;;;;21.91;98.62;100302.84;4993765;28;20189;-80
2023/08/15 00:54:34;;;;;;;0.17;0.13;;;;;;;21.88;99.08;100294.47;4993428;28;20272;-80
2023/08/15 00:57:04;;;;;;;1.50;1.40;;;;;;;21.86;99.26;100294.88;4993153;28;20288;-79
2023/08/15 00:59:29;;;;;;;0.10;0.10;;;;;;;21.83;99.20;100286.50;4993544;28;20190;-80
2023/08/15 01:01:55;;;;;;;0.00;0.00;;;;;;;21.86;99.18;100292.09;4994065;28;20677;-80
2023/08/15 01:04:21;;;;;;;0.23;0.17;;;;;;;21.79;99.37;100292.06;4992688;28;20221;-80
2023/08/15 01:06:46;;;;;;;0.13;0.13;;;;;;;21.89;98.94;100287.72;5008756;28;20189;-80
2023/08/15 01:09:12;;;;;;;3.60;1.03;;;;;;;21.79;99.30;100278.16;4992645;28;20197;-79
2023/08/15 01:11:56;;;;;;;1.20;1.20;;;;;;;21.73;99.62;100276.16;4993695;28;20439;-79
2023/08/15 01:14:29;;;;;;;2.37;1.17;;;;;;;21.76;99.58;100276.16;4991638;28;20213;-79
2023/08/15 01:16:56;;;;;;;0.97;0.97;;;;;;;21.72;99.48;100275.34;4992495;28;20214;-80
2023/08/15 01:19:39;;;;;;;0.20;0.20;;;;;;;21.79;98.98;100269.00;4992633;28;20232;-79
2023/08/15 01:22:14;;;;;;;0.13;0.13;;;;;;;21.77;98.97;100282.50;4992522;28;20205;-79
2023/08/15 01:24:40;;;;;;;0.30;0.30;;;;;;;21.75;98.99;100282.09;4993072;28;20230;-79
2023/08/15 01:27:05;;;;;;;0.17;0.17;;;;;;;21.79;98.81;100280.94;4993917;28;20237;-79
2023/08/15 01:29:31;;;;;;;0.00;0.00;;;;;;;21.80;98.36;100270.59;4992650;28;20200;-79
2023/08/15 01:32:27;;;;;;;0.00;0.00;;;;;;;21.85;98.19;100279.38;4996314;28;20568;-79
2023/08/15 01:35:05;;;;;;;0.43;0.43;;;;;;;21.77;98.16;100271.38;4987747;28;20210;-80
2023/08/15 01:37:30;;;;;;;0.63;0.63;;;;;;;21.73;98.57;100278.94;5007978;28;20289;-79
2023/08/15 01:39:57;;;;;;;1.23;1.13;;;;;;;21.68;98.66;100269.75;4992728;28;20653;-80
2023/08/15 01:42:25;;;;;;;1.33;1.03;;;;;;;21.65;98.82;100278.09;5008601;28;20268;-80
2023/08/15 01:44:53;;;;;;;0.43;0.43;;;;;;;21.67;99.13;100284.03;4993073;28;20200;-80
2023/08/15 01:47:19;;;;;;;0.63;0.50;;;;;;;21.72;98.63;100269.78;4992956;28;20191;-80
2023/08/15 01:49:45;;;;;;;2.43;0.83;;;;;;;21.66;98.74;100274.13;4991603;28;20650;-79
2023/08/15 01:52:10;;;;;;;1.03;1.03;;;;;;;21.58;99.33;100278.06;4994717;28;20248;-80
2023/08/15 01:54:35;;;;;;;0.40;0.40;;;;;;;21.57;99.56;100273.69;4992746;28;20709;-79
2023/08/15 01:57:00;;;;;;;1.77;1.13;;;;;;;21.59;99.80;100276.88;4995843;28;20218;-80
2023/08/15 01:59:26;;;;;;;1.47;1.10;;;;;;;21.56;99.61;100272.09;4996172;28;20188;-79
2023/08/15 02:01:51;;;;;;;0.67;0.67;;;;;;;21.56;99.51;100277.66;4996050;28;20220;-80
2023/08/15 02:04:16;;;;;;;1.50;1.40;;;;;;;21.54;99.76;100277.22;4996221;28;20262;-80
2023/08/15 02:06:42;;;;;;;1.77;1.67;;;;;;;21.57;99.73;100284.81;4996850;28;20572;-79
2023/08/15 02:09:07;;;;;;;0.67;0.67;;;;;;;21.48;100.00;100270.47;4999259;28;20223;-79
2023/08/15 02:11:33;;;;;;;1.00;1.00;;;;;;;21.54;100.00;100286.38;5012037;28;20184;-79
2023/08/15 02:13:58;;;;;;;6.03;1.97;;;;;;;;;;4996879;28;20708;-80
2023/08/15 02:16:23;;;;;;;3.13;1.37;;;;;;;;;;4997073;28;20378;-80
2023/08/15 02:18:49;;;;;;;0.43;0.43;;;;;;;21.54;99.85;100283.59;4997089;28;20208;-80
2023/08/15 02:21:14;;;;;;;1.20;1.20;;;;;;;21.57;100.00;100279.25;4996653;28;20186;-80
2023/08/15 02:23:39;;;;;;;0.57;0.57;;;;;;;21.60;99.69;100279.25;4996353;28;20555;-80
2023/08/15 02:26:05;;;;;;;0.67;0.67;;;;;;;21.61;99.13;100263.38;4995956;28;20546;-79
2023/08/15 02:28:31;;;;;;;0.53;0.53;;;;;;;21.66;98.79;100276.91;4994861;28;20248;-79
2023/08/15 02:30:56;;;;;;;1.10;1.10;;;;;;;21.65;98.30;100266.97;4995206;28;20562;-79
2023/08/15 02:33:22;;;;;;;2.20;1.63;;;;;;;21.55;98.93;100268.50;4994443;28;20192;-80
2023/08/15 02:35:52;;;;;;;1.20;1.10;;;;;;;21.66;98.41;100260.22;4995725;28;20202;-80
2023/08/15 02:38:17;;;;;;;1.70;1.60;;;;;;;21.65;98.04;100261.41;4994530;28;20694;-78
2023/08/15 02:40:42;;;;;;;1.20;1.10;;;;;;;21.62;97.80;100254.63;4995846;28;20205;-78
2023/08/15 02:43:08;;;;;;;1.70;1.60;;;;;;;21.50;98.24;100249.41;4994515;28;20189;-80
2023/08/15 02:45:34;;;;;;;2.07;1.43;;;;;;;21.54;98.10;100255.78;4997316;28;20230;-80
2023/08/15 02:47:59;;;;;;;2.07;1.83;;;;;;;21.55;98.33;100253.78;5015139;28;20181;-80
2023/08/15 02:50:24;;;;;;;2.07;1.67;;;;;;;21.69;97.47;100254.66;4994211;28;20228;-79
2023/08/15 02:52:50;;;;;;;5.47;2.27;;;;;;;21.74;96.77;100252.69;4993751;28;20196;-79
2023/08/15 02:55:15;;;;;;;1.63;1.50;;;;;;;21.76;96.44;100256.69;4994690;28;20229;-79
2023/08/15 02:57:40;;;;;;;1.10;1.10;;;;;;;21.72;96.32;100264.22;4995355;28;20205;-79
2023/08/15 03:00:07;;;;;;;5.87;1.90;;;;;;;21.69;96.06;100264.97;4995186;28;20610;-79
2023/08/15 03:02:33;;;;;;;2.57;1.20;;;;;;;21.76;96.18;100275.34;4999580;28;20180;-79
2023/08/15 03:04:58;;;;;;;2.23;2.13;;;;;;;21.71;96.54;100265.41;4999255;28;20709;-80
2023/08/15 03:07:24;;;;;;;1.13;1.13;;;;;;;21.63;96.60;100267.34;4996381;28;20669;-80
2023/08/15 03:09:49;;;;;;;2.77;1.07;;;;;;;21.61;97.14;100275.28;4995377;28;20181;-79
2023/08/15 03:12:14;;;;;;;1.93;1.07;;;;;;;21.56;97.38;100264.56;4995468;28;20241;-78
2023/08/15 03:14:40;;;;;;;1.00;1.00;;;;;;;;;;4994424;28;20201;-78
2023/08/15 03:17:07;;;;;;;2.93;1.20;;;;;;;21.56;97.81;100283.22;4993246;28;20293;-80
2023/08/15 03:19:33;;;;;;;1.53;1.43;;;;;;;21.57;97.69;100279.25;4994869;28;20189;-79
2023/08/15 03:21:58;;;;;;;0.97;0.97;;;;;;;21.57;97.88;100279.25;4993086;28;20189;-78
2023/08/15 03:24:26;;;;;;;0.90;0.90;;;;;;;21.48;98.12;100271.25;4994192;28;20203;-79
2023/08/15 03:26:52;;;;;;;2.30;1.40;;;;;;;21.50;98.09;100273.66;4995161;28;20518;-79
2023/08/15 03:29:17;;;;;;;0.60;0.60;;;;;;;21.37;98.66;100262.84;4992894;28;20231;-79
2023/08/15 03:31:42;;;;;;;4.03;1.63;;;;;;;21.18;99.96;100271.47;4994577;28;20549;-78
2023/08/15 03:34:08;;;;;;;1.60;1.50;;;;;;;21.18;100.00;100274.22;4996992;28;20708;-80
2023/08/15 03:36:33;;;;;;;1.60;1.50;;;;;;;21.14;100.00;100270.66;4995135;28;20202;-79
2023/08/15 03:38:59;;;;;;;3.70;1.43;;;;;;;21.14;100.00;100270.66;4997042;28;20185;-80
2023/08/15 03:41:24;;;;;;;1.67;1.53;;;;;;;21.02;100.00;100268.19;4994431;28;20564;-80
2023/08/15 03:43:49;;;;;;;1.53;0.90;;;;;;;20.98;100.00;100264.59;4996066;28;20201;-79
2023/08/15 03:46:14;;;;;;;1.77;1.63;;;;;;;20.98;100.00;100270.13;4994094;28;20543;-80
2023/08/15 03:48:41;;;;;;;1.70;1.60;;;;;;;20.97;100.00;100274.06;4994435;28;20272;-79
2023/08/15 03:51:06;;;;;;;3.00;1.00;;;;;;;20.98;100.00;100270.13;4995628;28;20173;-79
2023/08/15 03:53:32;;;;;;;2.73;2.53;;;;;;;21.00;100.00;100267.78;4994128;28;20177;-79
2023/08/15 03:55:57;;;;;;;1.00;1.00;;;;;;;21.08;100.00;100266.63;4993288;28;20273;-79
2023/08/15 03:58:23;;;;;;;1.53;1.43;;;;;;;21.09;100.00;100252.34;4994296;28;20216;-80
2023/08/15 04:00:49;;;;;;;0.87;0.87;;;;;;;21.16;100.00;100246.03;4993515;28;20189;-80
2023/08/15 04:03:15;;;;;;;5.13;1.53;;;;;;;21.21;100.00;100240.09;4994622;28;20231;-80
2023/08/15 04:05:45;;;;;;;1.30;1.00;;;;;;;21.22;100.00;100252.81;4995016;28;20201;-80
2023/08/15 04:08:11;;;;;;;1.90;1.60;;;;;;;21.25;100.00;100240.94;4992617;28;20210;-79
2023/08/15 04:10:39;;;;;;;3.63;1.80;;;;;;;21.31;100.00;100239.41;4993741;28;20184;-79
2023/08/15 04:13:09;;;;;;;0.73;0.73;;;;;;;21.26;100.00;100236.97;4995133;28;20264;-80
2023/08/15 04:15:35;;;;;;;0.90;0.90;;;;;;;21.27;100.00;100230.25;4991695;28;20220;-80
2023/08/15 04:18:05;;;;;;;1.33;1.33;;;;;;;21.32;99.99;100245.75;4995132;28;20201;-80
2023/08/15 04:20:30;;;;;;;1.33;1.23;;;;;;;21.34;99.56;100251.72;4994220;28;20196;-80
2023/08/15 04:22:56;;;;;;;1.10;1.10;;;;;;;21.36;99.51;100258.47;4994532;28;20184;-80
2023/08/15 04:25:21;;;;;;;2.23;2.03;;;;;;;21.25;99.90;100245.72;4992286;28;20205;-79
2023/08/15 04:27:47;;;;;;;1.80;1.53;;;;;;;21.30;99.70;100248.94;4994011;28;20176;-80
2023/08/15 04:30:12;;;;;;;2.50;1.23;;;;;;;21.42;99.44;100263.69;5010247;28;20178;-80
2023/08/15 04:32:37;;;;;;;0.90;0.90;;;;;;;21.40;99.32;100258.50;5003480;28;20597;-80
2023/08/15 04:35:03;;;;;;;1.80;1.63;;;;;;;21.41;99.05;100275.97;4994108;28;20209;-79
2023/08/15 04:37:29;;;;;;;1.70;1.60;;;;;;;21.47;98.95;100288.31;4994566;28;20251;-80
2023/08/15 04:39:54;;;;;;;1.70;1.60;;;;;;;21.44;98.60;100306.59;4994814;28;20560;-80
2023/08/15 04:42:20;;;;;;;0.80;0.80;;;;;;;21.45;98.72;100310.97;4993872;28;20173;-80
2023/08/15 04:44:45;;;;;;;1.50;1.40;;;;;;;21.46;98.45;100315.34;4991967;28;20197;-79
2023/08/15 04:47:11;;;;;;;1.80;1.70;;;;;;;21.46;98.48;100317.31;4993825;28;20185;-80
2023/08/15 04:49:36;;;;;;;1.63;1.53;;;;;;;21.47;98.65;100324.47;4992966;28;20533;-79
2023/08/15 04:52:01;;;;;;;5.50;1.63;;;;;;;21.45;98.68;100327.63;4994114;28;20185;-79
2023/08/15 04:54:27;;;;;;;1.83;1.73;;;;;;;21.44;98.84;100326.03;4992951;28;20205;-79
2023/08/15 04:56:52;;;;;;;1.10;1.00;;;;;;;21.39;99.45;100321.63;4999780;28;20204;-79
2023/08/15 04:59:18;;;;;;;1.37;1.37;;;;;;;21.47;99.09;100330.03;4995710;28;20187;-79
2023/08/15 05:01:47;;;;;;;1.37;1.37;;;;;;;21.49;98.80;100314.56;4992039;28;20189;-80
2023/08/15 05:04:12;;;;;;;1.00;1.00;;;;;;;21.59;98.46;100313.81;4992812;28;20205;-80
2023/08/15 05:06:40;;;;;;;1.57;1.47;;;;;;;21.66;98.03;100304.69;5001384;28;20259;-79
2023/08/15 05:09:05;;;;;;;1.87;1.77;;;;;;;21.65;98.07;100314.22;4991711;28;20679;-79
2023/08/15 05:11:31;;;;;;;7.20;1.80;;;;;;;21.72;97.77;100319.84;4993279;28;20178;-79
2023/08/15 05:13:57;;;;;;;5.00;1.20;;;;;;;21.77;98.02;100321.44;4992970;28;20208;-80
2023/08/15 05:16:22;;;;;;;1.23;1.07;;;;;;;21.88;97.54;100325.06;4992424;28;20182;-79
2023/08/15 05:18:48;;;;;;;1.10;1.10;;;;;;;22.05;96.98;100323.56;4993106;28;20205;-79
2023/08/15 05:21:13;;;;;;;1.60;1.23;;;;;;;22.04;96.15;100308.03;4991578;28;20184;-80
2023/08/15 05:23:38;;;;;;;0.03;0.03;;;;;;;22.15;95.45;100315.28;4991967;28;20510;-79
2023/08/15 05:26:04;;;;;;;7.37;1.87;;;;;;;22.19;94.99;100316.06;4992676;28;20182;-80
2023/08/15 05:28:29;;;;;;;2.37;1.60;;;;;;;22.20;95.13;100308.53;4991254;28;20265;-79
2023/08/15 05:30:54;;;;;;;4.77;1.47;;;;;;;22.19;95.93;100318.06;4991138;28;20232;-80
2023/08/15 05:33:20;;;;;;;0.50;0.50;;;;;;;22.23;95.70;100327.22;4989968;28;20562;-80
2023/08/15 05:35:45;;;;;;;1.27;1.10;;;;;;;22.26;95.27;100338.34;4991684;28;20205;-79
2023/08/15 05:38:10;;;;;;;2.00;1.27;;;;;;;22.33;94.88;100351.50;4996205;28;20200;-80
2023/08/15 05:40:36;;;;;;;0.80;0.80;;;;;;;22.42;95.48;100362.25;4991380;28;20658;-79
2023/08/15 05:43:01;;;;;;;1.07;1.07;;;;;;;22.42;95.68;100365.03;4992589;28;20196;-80
2023/08/15 05:45:27;;;;;;;0.40;0.40;;;;;;;22.39;96.05;100357.47;4999963;28;20225;-81
2023/08/15 05:47:52;;;;;;;0.73;0.73;;;;;;;22.43;96.00;100367.44;4991611;28;20183;-80
2023/08/15 05:50:17;;;;;;;0.10;0.10;;;;;;;22.58;95.87;100368.28;4991214;28;20276;-80
2023/08/15 05:52:43;;;;;;;0.00;0.00;;;;;;;22.61;96.06;100375.03;4992634;28;20180;-80
2023/08/15 05:55:08;;;;;;;0.33;0.33;;;;;;;22.63;95.89;100367.09;4991922;28;20756;-80
2023/08/15 05:57:33;;;;;;;0.17;0.17;;;;;;;22.61;96.00;100369.47;5002968;28;20207;-80
2023/08/15 05:59:59;;;;;;;1.03;1.03;;;;;;;22.54;97.04;100384.97;4991430;28;20264;-79
2023/08/15 06:02:25;;;;;;;0.50;0.30;;;;;;;22.50;97.47;100386.94;4991114;28;20210;-80
2023/08/15 06:04:50;;;;;;;5.40;1.43;;;;;;;22.41;98.15;100383.72;4987945;28;20286;-80
2023/08/15 06:07:15;;;;;;;0.40;0.40;;;;;;;22.32;97.87;100358.25;5010716;28;20265;-80
2023/08/15 06:09:41;;;;;;;1.93;0.57;;;;;;;22.27;97.83;100373.34;4994460;28;20267;-80
2023/08/15 06:12:06;;;;;;;0.53;0.53;;;;;;;22.26;98.50;100359.81;4992477;28;20222;-84
2023/08/15 06:14:34;;;;;;;0.30;0.30;;;;;;;22.19;100.00;100359.81;4988492;28;20559;-83
2023/08/15 06:16:59;;;;;;;0.47;0.47;;;;;;;22.00;100.00;100352.56;4991388;28;20211;-82
2023/08/15 06:19:24;;;;;;;0.97;0.97;;;;;;;21.97;100.00;100383.91;4991610;28;20265;-81
2023/08/15 06:21:49;;;;;;;2.93;1.83;;;;;;;21.74;100.00;100375.88;4990545;28;20669;-80
2023/08/15 06:24:15;;;;;;;0.70;0.70;;;;;;;21.66;100.00;100375.03;4990952;28;20201;-81
2023/08/15 06:26:40;;;;;;;4.47;1.67;;;;;;;21.56;100.00;100389.69;4990373;28;20178;-83
2023/08/15 06:29:06;;;;;;;1.57;1.50;;;;;;;21.35;100.00;100409.75;4993166;28;20181;-80
2023/08/15 06:31:33;;;;;;;1.00;1.00;;;;;;;21.17;100.00;100433.00;4993788;28;20184;-80
2023/08/15 06:33:59;;;;;;;1.03;1.03;;;;;;;21.03;100.00;100445.59;4992877;28;20198;-80
2023/08/15 06:36:25;;;;;;;0.83;0.83;;;;;;;21.03;100.00;100455.91;4991753;28;20244;-82
2023/08/15 06:38:50;;;;;;;1.87;0.53;;;;;;;21.02;100.00;100488.44;4991298;28;20688;-80
2023/08/15 06:41:16;;;;;;;1.80;1.70;;;;;;;20.97;100.00;100490.75;4991849;28;20421;-82
2023/08/15 06:43:42;;;;;;;0.83;0.43;;;;;;;20.95;100.00;100523.66;4995150;28;20188;-82
2023/08/15 06:46:07;;;;;;;1.60;1.50;;;;;;;20.87;100.00;100535.88;4994655;28;20208;-82
2023/08/15 06:48:32;;;;;;;0.73;0.73;;;;;;;20.90;100.00;100546.22;4994814;28;20203;-83
2023/08/15 06:50:58;;;;;;;0.03;0.03;;;;;;;20.85;100.00;100554.91;4994406;28;20704;-82
2023/08/15 06:53:23;;;;;;;1.30;1.20;;;;;;;20.78;100.00;100561.97;4995808;28;20184;-83
2023/08/15 06:55:49;;;;;;;7.77;3.30;;;;;;;20.63;100.00;100562.16;4994814;28;20193;-82
2023/08/15 06:58:15;;;;;;;0.00;0.00;;;;;;;20.52;100.00;100536.22;4995279;28;20205;-81
2023/08/15 07:00:42;;;;;;;0.00;0.00;;;;;;;20.44;100.00;100502.03;4994800;28;20658;-81
2023/08/15 07:03:07;;;;;;;0.00;0.00;;;;;;;20.43;100.00;100492.91;4993539;28;20260;-84
2023/08/15 07:05:34;;;;;;;3.00;1.90;;;;;;;20.36;100.00;100467.00;4995149;28;20197;-83
2023/08/15 07:07:59;;;;;;;1.10;0.80;;;;;;;20.34;100.00;100427.72;4994648;28;20603;-83
2023/08/15 07:10:25;;;;;;;1.43;1.37;;;;;;;20.25;100.00;100428.00;4994540;28;20264;-81
2023/08/15 07:12:51;;;;;;;0.87;0.87;;;;;;;20.20;100.00;100400.59;4994409;28;20240;-81
2023/08/15 07:15:16;;;;;;;1.00;0.80;;;;;;;20.26;100.00;100417.72;4992923;28;20692;-84
2023/08/15 07:17:41;;;;;;;0.80;0.80;;;;;;;20.08;100.00;100398.88;4994831;28;20712;-82
2023/08/15 07:20:08;;;;;;;0.03;0.03;;;;;;;20.11;100.00;100386.25;4992389;28;20181;-83
2023/08/15 07:22:34;;;;;;;0.27;0.27;;;;;;;20.18;100.00;100376.00;4989373;28;20430;-82
2023/08/15 07:25:00;;;;;;;0.87;0.87;;;;;;;20.28;100.00;100390.41;4993932;28;20197;-83
2023/08/15 07:27:25;;;;;;;0.00;0.00;;;;;;;20.31;100.00;100386.88;5002331;28;20215;-84
2023/08/15 07:29:51;;;;;;;0.20;0.20;;;;;;;20.39;100.00;100394.88;4994693;28;20263;-84
2023/08/15 07:32:16;;;;;;;0.60;0.60;;;;;;;20.43;100.00;100401.31;4994439;28;20181;-81
2023/08/15 07:34:42;;;;;;;0.20;0.20;;;;;;;20.48;100.00;100400.16;4992747;28;20204;-82
2023/08/15 07:37:07;;;;;;;0.63;0.30;;;;;;;20.53;100.00;100399.81;4993272;28;20212;-82
2023/08/15 07:39:32;;;;;;;0.30;0.30;;;;;;;20.67;100.00;100402.75;4994194;28;20184;-81
2023/08/15 07:41:57;;;;;;;0.00;0.00;;;;;;;20.82;100.00;100417.56;5009296;28;20189;-81
2023/08/15 07:44:25;;;;;;;0.00;0.00;;;;;;;20.99;100.00;100443.97;4993566;28;20205;-81
2023/08/15 07:46:51;;;;;;;0.00;0.00;;;;;;;21.17;100.00;100472.72;4994144;28;20193;-82
2023/08/15 07:49:16;;;;;;;0.00;0.00;;;;;;;21.31;100.00;100491.53;4992933;28;20211;-81
2023/08/15 07:51:42;;;;;;;0.00;0.00;;;;;;;21.38;100.00;100500.72;4994159;28;20189;-82
2023/08/15 07:54:07;;;;;;;0.20;0.20;;;;;;;21.52;100.00;100502.03;4992004;28;20203;-82
2023/08/15 07:56:33;;;;;;;0.20;0.20;;;;;;;21.53;100.00;100486.94;4991949;28;20300;-82
2023/08/15 07:58:59;;;;;;;0.47;0.30;;;;;;;21.61;100.00;100475.50;4994179;28;20626;-82
2023/08/15 08:01:24;;;;;;;0.00;0.00;;;;;;;21.60;100.00;100445.31;4994410;28;20185;-82
2023/08/15 08:03:49;;;;;;;0.27;0.27;;;;;;;21.59;100.00;100477.06;4992483;28;20248;-81
2023/08/15 08:06:15;;;;;;;3.07;0.50;;;;;;;21.45;100.00;100474.97;4991710;28;20212;-81
2023/08/15 08:08:40;;;;;;;0.27;0.27;;;;;;;21.61;100.00;100480.25;4993753;28;20245;-82
2023/08/15 08:11:05;;;;;;;0.73;0.73;;;;;;;21.68;100.00;100480.31;4992107;28;20189;-80
2023/08/15 08:13:31;;;;;;;0.07;0.07;;;;;;;21.69;100.00;100474.34;4992129;28;20681;-83
2023/08/15 08:15:56;;;;;;;0.50;0.50;;;;;;;21.75;100.00;100474.81;4991597;28;20221;-81
2023/08/15 08:18:21;;;;;;;19.80;1.00;;;;;;;21.77;100.00;100480.78;4993947;28;20206;-82
2023/08/15 08:20:47;;;;;;;0.77;0.57;;;;;;;21.65;100.00;100479.09;5014831;28;20185;-81
2023/08/15 08:23:13;;;;;;;0.27;0.27;;;;;;;21.56;100.00;100492.56;4993266;28;20192;-82
2023/08/15 08:25:39;;;;;;;0.40;0.40;;;;;;;21.72;100.00;100503.41;4992801;28;20212;-80
2023/08/15 08:28:05;;;;;;;0.60;0.60;;;;;;;21.90;100.00;100518.22;4993473;28;20173;-81
2023/08/15 08:30:30;;;;;;;0.00;0.00;;;;;;;22.07;100.00;100504.84;4991975;28;20335;-81
2023/08/15 08:32:56;;;;;;;0.13;0.13;;;;;;;22.21;100.00;100507.72;4991994;28;20203;-81
2023/08/15 08:35:21;;;;;;;0.60;0.60;;;;;;;22.17;100.00;100496.59;5007428;28;20241;-83
2023/08/15 08:37:50;;;;;;;0.40;0.40;;;;;;;22.09;100.00;100488.56;4992873;28;20289;-81
2023/08/15 08:40:18;;;;;;;3.07;0.33;;;;;;;22.13;100.00;100478.25;4991845;28;20183;-81
2023/08/15 08:42:44;;;;;;;0.43;0.43;;;;;;;22.25;100.00;100477.91;4992956;28;20315;-81
2023/08/15 08:45:11;;;;;;;1.10;0.50;;;;;;;22.12;100.00;100487.78;4991986;28;20198;-80
2023/08/15 08:47:41;;;;;;;0.10;0.10;;;;;;;22.22;100.00;100504.56;4993059;28;20188;-81
2023/08/15 08:50:10;;;;;;;0.47;0.47;;;;;;;22.29;100.00;100503.00;4993305;28;20266;-81
2023/08/15 08:52:40;;;;;;;8.13;0.77;;;;;;;22.43;100.00;100503.09;4993948;28;20187;-80
2023/08/15 08:55:06;;;;;;;0.40;0.40;;;;;;;22.53;100.00;100499.53;4993141;28;20293;-81
2023/08/15 08:57:32;;;;;;;4.13;1.07;;;;;;;22.43;100.00;100495.53;4993970;28;20349;-80
2023/08/15 09:00:00;;;;;;;0.17;0.17;;;;;;;22.46;100.00;100493.94;4992858;28;20676;-82
2023/08/15 09:02:25;;;;;;;0.00;0.00;;;;;;;22.77;100.00;100500.84;4993646;28;20192;-80
2023/08/15 09:04:54;;;;;;;1.27;0.80;;;;;;;22.80;100.00;100497.25;4992405;28;20227;-81
2023/08/15 09:07:19;;;;;;;0.00;0.00;;;;;;;23.04;100.00;100499.34;4992702;28;20206;-81
2023/08/15 09:09:44;;;;;;;0.40;0.40;;;;;;;23.10;100.00;100500.53;4993838;28;20189;-80
2023/08/15 09:12:36;;;;;;;0.10;0.10;;;;;;;23.30;100.00;100491.84;4992250;28;20271;-81
2023/08/15 09:15:09;;;;;;;0.00;0.00;;;;;;;23.23;100.00;100481.44;4992896;28;20205;-81
2023/08/15 09:17:35;;;;;;;0.07;0.07;;;;;;;23.33;99.39;100491.03;4993401;28;20209;-81
2023/08/15 09:20:14;;;;;;;1.47;0.77;;;;;;;23.43;98.39;100493.84;4992172;28;20290;-80
2023/08/15 09:22:45;;;;;;;0.47;0.47;;;;;;;23.44;96.45;100481.47;4993251;28;20187;-80
2023/08/15 09:25:15;;;;;;;0.40;0.40;;;;;;;23.34;90.42;100473.09;4992318;28;20197;-81
2023/08/15 09:27:41;;;;;;;0.27;0.20;;;;;;;23.38;88.16;100474.69;4992158;28;20556;-80
2023/08/15 09:30:16;;;;;;;0.43;0.43;;;;;;;23.59;91.21;100487.88;4993441;28;20657;-81
2023/08/15 09:32:43;;;;;;;0.63;0.60;;;;;;;23.71;90.68;100484.66;4993894;28;20191;-81
2023/08/15 09:35:11;;;;;;;0.50;0.50;;;;;;;23.61;87.91;100465.97;4991114;28;20351;-80
2023/08/15 09:37:47;;;;;;;0.00;0.00;;;;;;;23.78;87.15;100472.72;4991764;28;20694;-80
2023/08/15 09:40:42;;;;;;;0.57;0.57;;;;;;;23.99;86.97;100477.47;4991956;28;20679;-81
2023/08/15 09:43:13;;;;;;;0.60;0.50;;;;;;;24.11;86.88;100481.81;5007065;28;20703;-80
2023/08/15 09:45:39;;;;;;;0.00;0.00;;;;;;;24.09;88.42;100485.03;4991642;28;20220;-80
2023/08/15 09:48:05;;;;;;;0.00;0.00;;;;;;;24.37;87.10;100472.22;4993479;28;20680;-81
2023/08/15 09:50:31;;;;;;;0.00;0.00;;;;;;;24.28;85.07;100464.22;4991781;28;20188;-80
2023/08/15 09:52:58;;;;;;;0.07;0.03;;;;;;;24.29;84.95;100466.63;4992976;28;20180;-80
2023/08/15 09:55:25;;;;;;;0.27;0.27;;;;;;;24.30;84.11;100459.88;4991349;28;20220;-80
2023/08/15 09:57:51;;;;;;;0.30;0.30;;;;;;;24.19;83.36;100469.44;4990873;28;20204;-80
2023/08/15 10:00:17;;;;;;;0.10;0.10;;;;;;;24.21;82.88;100455.88;4991415;28;20267;-81
2023/08/15 10:03:01;;;;;;;2.33;2.27;;;;;;;24.26;83.29;100450.66;4989209;28;20181;-80
2023/08/15 10:05:31;;;;;;;0.10;0.10;;;;;;;24.38;82.10;100468.22;4990484;28;20201;-80
2023/08/15 10:07:57;;;;;;;0.27;0.27;;;;;;;24.53;84.25;100476.13;4991826;28;20192;-83
2023/08/15 10:10:24;;;;;;;0.40;0.40;;;;;;;24.57;81.99;100476.91;4992675;28;20215;-81
2023/08/15 10:12:50;;;;;;;0.43;0.43;;;;;;;24.72;83.52;100482.41;4992703;28;20191;-81
2023/08/15 10:15:17;;;;;;;0.77;0.77;;;;;;;24.68;82.22;100474.06;4991827;28;20216;-81
2023/08/15 10:17:43;;;;;;;2.43;0.20;;;;;;;24.76;81.98;100488.81;4994038;28;20212;-80
2023/08/15 10:20:12;;;;;;;0.83;0.83;;;;;;;24.76;81.50;100486.81;4997000;28;20188;-81
2023/08/15 10:22:39;;;;;;;0.40;0.40;;;;;;;24.76;81.26;100478.44;4997168;28;20625;-81
2023/08/15 10:25:17;;;;;;;0.60;0.50;;;;;;;25.03;81.58;100509.47;4995380;28;20201;-80
2023/08/15 10:27:47;;;;;;;1.17;1.07;;;;;;;25.12;81.30;100495.00;4988960;28;20213;-81
2023/08/15 10:30:28;;;;;;;1.27;0.87;;;;;;;25.18;79.76;100499.78;4996926;28;20184;-80
2023/08/15 10:32:54;;;;;;;0.90;0.90;;;;;;;25.07;79.41;100506.63;4996795;28;20177;-80
2023/08/15 10:35:25;;;;;;;0.20;0.20;;;;;;;25.15;78.19;100496.97;4995604;28;20205;-80
2023/08/15 10:37:51;;;;;;;0.70;0.70;;;;;;;24.95;78.92;100493.09;4993887;28;20283;-81
2023/08/15 10:40:17;;;;;;;0.50;0.50;;;;;;;25.11;78.59;100499.00;4997267;28;20213;-80
2023/08/15 10:42:57;;;;;;;0.90;0.90;;;;;;;25.39;79.65;100510.00;4995507;28;20185;-80
2023/08/15 10:45:23;;;;;;;0.70;0.70;;;;;;;25.40;79.01;100506.00;4995543;28;20299;-81
2023/08/15 10:47:49;;;;;;;0.57;0.57;;;;;;;25.60;78.00;100511.03;5001884;28;20223;-82
2023/08/15 10:50:15;;;;;;;0.40;0.40;;;;;;;25.70;76.33;100504.59;4998675;28;20192;-81
2023/08/15 10:52:41;;;;;;;6.83;1.30;;;;;;;25.67;75.55;100506.19;4994068;28;20189;-83
2023/08/15 10:55:06;;;;;;;0.97;0.87;;;;;;;25.79;76.39;100510.53;4994939;28;20283;-81
2023/08/15 10:57:33;;;;;;;0.80;0.80;;;;;;;25.94;76.60;100525.97;4996016;28;20197;-80
2023/08/15 10:59:58;;;;;;;1.23;1.13;;;;;;;25.90;75.25;100510.44;4996128;28;20661;-80
2023/08/15 11:02:24;;;;;;;0.07;0.07;;;;;;;25.99;75.19;100514.31;4993515;28;20193;-80
2023/08/15 11:04:49;;;;;;;1.53;1.27;;;;;;;26.06;74.95;100522.66;4995158;28;20301;-80
2023/08/15 11:07:24;;;;;;;1.10;1.10;;;;;;;26.05;73.14;100511.88;4995646;28;20185;-80
2023/08/15 11:09:50;;;;;;;1.30;1.10;;;;;;;25.85;71.93;100503.25;4995316;28;20184;-82
2023/08/15 11:12:15;;;;;;;0.50;0.50;;;;;;;25.91;73.46;100514.81;4995689;28;20231;-80
2023/08/15 11:14:41;;;;;;;0.57;0.57;;;;;;;26.01;73.51;100511.09;4994945;28;20256;-80
2023/08/15 11:17:07;;;;;;;0.60;0.60;;;;;;;25.98;71.60;100503.53;5003865;28;20209;-80
2023/08/15 11:19:33;;;;;;;3.87;1.20;;;;;;;26.01;71.76;100511.91;4994367;28;20563;-82
2023/08/15 11:21:58;;;;;;;1.00;0.90;;;;;;;26.07;70.94;100499.03;4994968;28;20256;-82